Time;durP1;ratioP1;P1;durP2;ratioP2;P2;SDS_P1;SDS_P2;PMS_P1;PMS_P2;Temp;Humidity;BMP_temperature;BMP_pressure;BME280_temperature;BME280_humidity;BME280_pressure;Samples;Min_cycle;Max_cycle;Signal;HPM_P1;HPM_P2
2021/10/20 00:02:20;;;;;;;16.02;9.25;;;;;;;1.59;56.35;100650.48;1610844;86;21510;-59
2021/10/20 00:04:48;;;;;;;21.37;10.25;;;;;;;1.63;56.33;100649.66;1613006;86;21136;-58
2021/10/20 00:07:15;;;;;;;22.60;10.72;;;;;;;1.59;56.44;100650.05;1614795;87;22071;-58
2021/10/20 00:09:42;;;;;;;22.60;10.33;;;;;;;1.61;56.67;100648.78;1616372;87;22006;-59
2021/10/20 00:12:09;;;;;;;18.50;10.18;;;;;;;1.65;56.62;100643.63;1612557;86;21009;-58
2021/10/20 00:14:35;;;;;;;18.50;9.13;;;;;;;1.65;56.71;100647.51;1615045;87;21605;-58
2021/10/20 00:17:02;;;;;;;21.27;10.50;;;;;;;1.71;56.78;100641.11;1612058;86;21627;-58
2021/10/20 00:19:30;;;;;;;16.50;9.58;;;;;;;1.74;56.78;100644.15;1614753;86;21128;-58
2021/10/20 00:21:56;;;;;;;16.40;9.25;;;;;;;1.74;56.61;100639.82;1613203;86;22062;-58
2021/10/20 00:24:23;;;;;;;21.50;10.30;;;;;;;1.78;56.80;100634.67;1611734;86;21396;-58
2021/10/20 00:26:50;;;;;;;16.80;9.85;;;;;;;1.78;57.03;100625.16;1614993;86;21574;-58
2021/10/20 00:29:17;;;;;;;17.27;10.33;;;;;;;1.85;56.96;100620.91;1588278;87;21547;-58
2021/10/20 00:31:44;;;;;;;20.62;10.95;;;;;;;1.90;56.98;100619.20;1614392;87;21829;-58
2021/10/20 00:34:11;;;;;;;19.85;10.85;;;;;;;1.92;56.87;100621.38;1603905;88;21798;-58
2021/10/20 00:36:38;;;;;;;19.30;11.60;;;;;;;1.94;56.66;100613.17;1605047;87;21541;-59
2021/10/20 00:39:05;;;;;;;22.73;12.25;;;;;;;1.92;56.94;100601.92;1604536;88;21622;-60
2021/10/20 00:41:32;;;;;;;22.60;12.78;;;;;;;1.95;56.99;100603.25;1602113;87;21755;-59
2021/10/20 00:43:59;;;;;;;23.20;13.20;;;;;;;1.94;56.83;100603.70;1600999;87;21550;-59
2021/10/20 00:46:28;;;;;;;26.30;12.77;;;;;;;1.87;57.13;100601.91;1600553;87;22017;-60
2021/10/20 00:48:55;;;;;;;23.00;12.53;;;;;;;1.87;57.55;100604.94;1606527;88;21543;-60
2021/10/20 00:51:25;;;;;;;23.87;12.53;;;;;;;1.89;57.31;100601.92;1582262;88;21527;-59
2021/10/20 00:53:51;;;;;;;26.10;12.90;;;;;;;1.95;57.33;100597.63;1602531;87;21066;-59
2021/10/20 00:56:18;;;;;;;26.57;14.40;;;;;;;2.00;57.26;100592.90;1605372;88;27173;-58
2021/10/20 00:58:45;;;;;;;25.10;14.15;;;;;;;2.02;57.28;100602.45;1579407;88;21616;-59
2021/10/20 01:01:12;;;;;;;25.05;15.32;;;;;;;2.06;57.61;100603.34;1612658;87;21553;-59
2021/10/20 01:03:39;;;;;;;32.15;15.03;;;;;;;2.11;57.34;100599.92;1604050;87;21080;-59
2021/10/20 01:06:06;;;;;;;33.13;16.20;;;;;;;2.11;57.44;100599.03;1610412;87;21679;-60
2021/10/20 01:08:33;;;;;;;39.83;20.70;;;;;;;2.18;57.48;100594.77;1608998;87;21104;-59
2021/10/20 01:11:00;;;;;;;40.60;21.50;;;;;;;2.23;57.06;100595.67;1605491;87;21813;-59
2021/10/20 01:13:27;;;;;;;38.48;22.05;;;;;;;2.20;57.08;100591.75;1604137;87;21534;-59
2021/10/20 01:15:54;;;;;;;41.23;20.85;;;;;;;2.24;57.12;100592.20;1608321;87;22015;-60
2021/10/20 01:18:21;;;;;;;41.02;20.08;;;;;;;2.24;57.11;100591.80;1610972;87;21598;-59
2021/10/20 01:20:51;;;;;;;31.57;17.27;;;;;;;2.26;57.44;100584.00;1609671;87;21587;-59
2021/10/20 01:23:29;;;;;;;34.67;20.32;;;;;;;2.23;57.33;100586.16;1606596;87;22037;-59
2021/10/20 01:25:56;;;;;;;49.08;27.87;;;;;;;2.20;57.48;100585.27;1644495;85;21644;-59
2021/10/20 01:28:23;;;;;;;55.47;29.83;;;;;;;2.15;57.40;100594.33;1622916;86;21613;-58
2021/10/20 01:30:50;;;;;;;63.10;35.30;;;;;;;2.07;57.42;100590.80;1636865;84;22408;-60
2021/10/20 01:33:17;;;;;;;62.08;32.75;;;;;;;2.00;57.42;100589.91;1647554;84;21615;-59
2021/10/20 01:35:44;;;;;;;61.48;31.10;;;;;;;1.92;57.81;100582.06;1663460;85;22129;-59
2021/10/20 01:38:11;;;;;;;64.97;33.70;;;;;;;1.91;57.80;100582.91;1657469;85;21540;-58
2021/10/20 01:40:38;;;;;;;60.98;33.42;;;;;;;1.87;57.88;100577.27;1657450;84;21565;-60
2021/10/20 01:43:05;;;;;;;61.92;32.88;;;;;;;1.87;58.12;100576.41;1655460;84;21099;-59
2021/10/20 01:45:33;;;;;;;55.45;29.82;;;;;;;1.87;58.44;100583.75;1654700;85;21611;-58
2021/10/20 01:48:05;;;;;;;50.35;27.70;;;;;;;1.87;58.02;100584.19;1671229;84;22101;-58
2021/10/20 01:50:33;;;;;;;54.75;30.15;;;;;;;1.84;57.53;100578.96;1678010;82;21142;-59
2021/10/20 01:53:00;;;;;;;49.13;25.87;;;;;;;1.72;57.57;100580.60;1680027;83;21617;-57
2021/10/20 01:55:29;;;;;;;45.73;23.35;;;;;;;1.70;57.79;100590.53;1693646;82;21629;-57
2021/10/20 01:57:56;;;;;;;39.85;19.40;;;;;;;1.63;57.80;100593.92;1681360;83;21530;-58
2021/10/20 02:00:23;;;;;;;42.45;19.82;;;;;;;1.53;57.99;100587.36;1692966;82;21565;-58
2021/10/20 02:02:50;;;;;;;32.03;16.82;;;;;;;1.54;57.98;100596.88;1671309;84;21470;-59
2021/10/20 02:05:16;;;;;;;32.38;18.30;;;;;;;1.52;58.17;100592.08;1662112;84;21589;-59
2021/10/20 02:07:44;;;;;;;36.45;18.07;;;;;;;1.56;58.12;100591.69;1661927;84;21084;-59
2021/10/20 02:10:13;;;;;;;30.57;15.73;;;;;;;1.56;58.59;100587.80;1662354;84;21055;-59
2021/10/20 02:12:40;;;;;;;31.87;16.97;;;;;;;1.58;58.13;100593.00;1665693;84;21836;-59
2021/10/20 02:15:08;;;;;;;26.90;15.60;;;;;;;1.57;58.29;100602.51;1659442;84;21606;-59
2021/10/20 02:17:35;;;;;;;;;;;;;;;1.60;58.67;100602.95;1666965;84;21514;-60
2021/10/20 02:20:01;;;;;;;33.57;15.40;;;;;;;1.55;59.00;100601.62;1680645;83;20502;-59
2021/10/20 02:22:29;;;;;;;24.57;14.03;;;;;;;1.48;59.03;100598.09;1668968;83;22035;-60
2021/10/20 02:24:56;;;;;;;29.17;16.10;;;;;;;1.45;59.13;100603.27;1697950;82;22205;-60
2021/10/20 02:28:55;;;;;;;29.02;16.17;;;;;;;1.43;59.18;100604.09;1774353;78;23198;-60
2021/10/20 02:31:21;;;;;;;32.40;15.85;;;;;;;1.35;59.27;100605.31;1733579;80;21581;-60
2021/10/20 02:33:49;;;;;;;26.20;15.37;;;;;;;1.30;59.44;100599.20;1743267;81;21813;-63
2021/10/20 02:36:16;;;;;;;31.73;15.53;;;;;;;1.30;59.53;100603.98;1725807;80;21192;-60
2021/10/20 02:38:44;;;;;;;25.15;14.45;;;;;;;1.30;59.27;100597.91;1742250;80;27099;-59
2021/10/20 02:41:10;;;;;;;26.80;14.70;;;;;;;1.28;59.36;100600.52;1730826;80;21026;-59
2021/10/20 02:43:39;;;;;;;29.37;14.13;;;;;;;1.28;59.24;100595.33;1717467;81;21535;-59
2021/10/20 02:46:07;;;;;;;27.40;14.50;;;;;;;1.28;59.25;100589.25;1736648;80;21742;-59
2021/10/20 02:48:34;;;;;;;29.20;14.95;;;;;;;1.28;59.16;100599.22;1743924;80;20967;-59
2021/10/20 02:51:01;;;;;;;27.87;14.87;;;;;;;1.26;58.94;100593.55;1742786;80;28547;-60
2021/10/20 02:53:28;;;;;;;24.87;13.35;;;;;;;1.26;58.86;100597.04;1731399;80;21009;-61
2021/10/20 02:55:55;;;;;;;19.82;11.93;;;;;;;1.22;59.29;100591.79;1727211;80;21438;-60
2021/10/20 02:58:22;;;;;;;22.73;12.03;;;;;;;1.26;59.22;100595.75;1738451;81;21887;-60
2021/10/20 03:00:49;;;;;;;22.40;11.50;;;;;;;1.38;59.03;100595.42;1733811;80;21625;-60
2021/10/20 03:03:16;;;;;;;22.00;10.20;;;;;;;1.45;58.91;100596.80;1730149;81;21797;-60
2021/10/20 03:05:43;;;;;;;13.70;8.75;;;;;;;1.47;58.86;100596.78;1698262;83;21459;-60
2021/10/20 03:08:12;;;;;;;13.60;8.73;;;;;;;1.61;58.56;100606.86;1686110;83;21531;-60
2021/10/20 03:10:40;;;;;;;13.68;8.35;;;;;;;1.66;58.37;100606.48;1695221;82;21818;-60
2021/10/20 03:13:08;;;;;;;17.13;8.83;;;;;;;1.70;58.46;100612.56;1685991;82;21490;-60
2021/10/20 03:15:35;;;;;;;13.45;8.03;;;;;;;1.80;58.31;100613.52;1696514;82;21862;-60
2021/10/20 03:18:02;;;;;;;12.40;7.23;;;;;;;1.87;58.62;100606.23;1693150;83;21508;-59
2021/10/20 03:20:29;;;;;;;13.67;8.23;;;;;;;2.00;58.28;100607.16;1693318;82;21543;-59
2021/10/20 03:22:56;;;;;;;13.48;9.35;;;;;;;2.10;58.05;100610.28;1692701;82;21837;-60
2021/10/20 03:25:24;;;;;;;14.10;8.60;;;;;;;2.20;57.74;100604.29;1691869;82;21111;-60
2021/10/20 03:27:51;;;;;;;20.95;10.08;;;;;;;2.29;57.37;100606.95;1691803;82;21656;-59
2021/10/20 03:30:19;;;;;;;16.23;8.48;;;;;;;2.30;57.61;100611.30;1683976;83;21043;-59
2021/10/20 03:32:47;;;;;;;14.60;8.10;;;;;;;2.36;57.37;100603.12;1677666;84;21532;-59
2021/10/20 03:35:14;;;;;;;12.90;8.00;;;;;;;2.44;57.09;100611.80;1674829;83;22168;-60
2021/10/20 03:37:42;;;;;;;11.57;8.10;;;;;;;2.49;57.12;100604.92;1685916;83;21563;-60
2021/10/20 03:40:09;;;;;;;17.82;8.98;;;;;;;2.46;57.22;100601.00;1675556;83;21542;-61
2021/10/20 03:42:36;;;;;;;;;;;;;;;2.43;57.25;100594.08;1677413;83;21531;-60
2021/10/20 03:45:05;;;;;;;13.62;8.23;;;;;;;2.46;57.41;100585.42;1680527;83;20444;-60
2021/10/20 03:47:33;;;;;;;15.35;8.75;;;;;;;2.49;57.15;100581.12;1684861;83;21806;-60
2021/10/20 03:50:00;;;;;;;15.65;8.73;;;;;;;2.46;57.24;100582.39;1687734;84;21035;-60
2021/10/20 03:52:27;;;;;;;12.70;8.40;;;;;;;2.48;57.33;100587.59;1679697;83;21519;-59
2021/10/20 03:54:54;;;;;;;12.03;7.92;;;;;;;2.44;57.68;100592.34;1681268;83;21536;-59
2021/10/20 03:57:21;;;;;;;15.55;9.03;;;;;;;2.49;57.64;100590.64;1675164;83;21557;-60
2021/10/20 03:59:48;;;;;;;16.17;9.67;;;;;;;2.51;57.68;100598.01;1682822;83;22209;-59
2021/10/20 04:02:15;;;;;;;15.15;9.38;;;;;;;2.56;57.78;100594.98;1674914;83;21544;-59
2021/10/20 04:04:42;;;;;;;14.60;10.20;;;;;;;2.58;57.71;100594.59;1690672;83;21576;-61
2021/10/20 04:07:08;;;;;;;18.87;9.68;;;;;;;2.58;57.85;100590.69;1729297;80;21547;-59
2021/10/20 04:09:35;;;;;;;19.40;9.50;;;;;;;2.59;57.90;100604.09;1725119;81;21519;-59
2021/10/20 04:12:03;;;;;;;16.07;9.13;;;;;;;2.61;58.04;100602.38;1726972;80;21921;-59
2021/10/20 04:14:30;;;;;;;18.52;9.50;;;;;;;2.61;58.19;100602.38;1724845;81;25699;-59
2021/10/20 04:16:57;;;;;;;17.37;9.85;;;;;;;2.63;58.19;100597.19;1726512;80;21499;-59
2021/10/20 04:19:24;;;;;;;15.18;10.50;;;;;;;2.64;58.23;100598.50;1716441;81;21508;-59
2021/10/20 04:21:50;;;;;;;15.45;9.18;;;;;;;2.63;58.31;100592.86;1730108;80;21589;-60
2021/10/20 04:24:18;;;;;;;14.93;10.18;;;;;;;2.61;58.32;100593.72;1704660;82;21881;-60
2021/10/20 04:26:45;;;;;;;15.80;10.93;;;;;;;2.60;58.26;100588.08;1721612;81;21445;-60
2021/10/20 04:29:12;;;;;;;20.25;10.78;;;;;;;2.62;58.01;100579.86;1729896;80;21531;-59
2021/10/20 04:31:39;;;;;;;16.67;10.70;;;;;;;2.53;58.36;100572.92;1715824;81;21097;-60
2021/10/20 04:34:06;;;;;;;21.60;12.47;;;;;;;2.49;58.48;100570.73;1728078;81;21445;-60
2021/10/20 04:36:33;;;;;;;19.62;11.68;;;;;;;2.50;59.00;100567.26;1728897;80;21861;-59
2021/10/20 04:39:00;;;;;;;19.75;12.15;;;;;;;2.49;58.70;100542.17;1724426;81;21623;-60
2021/10/20 04:41:27;;;;;;;17.10;10.63;;;;;;;2.42;58.87;100527.87;1730055;81;21657;-60
2021/10/20 04:43:54;;;;;;;19.98;11.50;;;;;;;2.39;59.05;100548.17;1721270;80;21598;-61
2021/10/20 04:46:21;;;;;;;;;;;;;;;2.37;59.06;100564.16;1723234;81;21042;-62
2021/10/20 04:48:48;;;;;;;23.30;12.30;;;;;;;2.31;59.21;100563.70;1726344;81;22133;-61
2021/10/20 04:51:15;;;;;;;19.55;11.20;;;;;;;2.31;59.13;100554.62;1721882;81;21523;-59
2021/10/20 04:53:42;;;;;;;20.07;11.33;;;;;;;2.33;59.31;100561.12;1721388;80;21566;-59
2021/10/20 04:56:09;;;;;;;21.85;12.47;;;;;;;2.42;59.08;100551.23;1715858;82;20989;-59
2021/10/20 04:58:37;;;;;;;18.97;11.77;;;;;;;2.51;59.09;100541.75;1720044;80;21551;-60
2021/10/20 05:01:03;;;;;;;21.20;12.10;;;;;;;2.51;59.09;100541.75;1713211;80;21408;-63
2021/10/20 05:03:30;;;;;;;19.32;12.43;;;;;;;2.57;59.10;100534.86;1725904;81;21591;-61
2021/10/20 05:05:57;;;;;;;16.97;12.23;;;;;;;2.60;59.08;100536.15;1724961;80;21530;-60
2021/10/20 05:08:24;;;;;;;21.50;13.65;;;;;;;2.62;59.14;100537.91;1731703;81;21861;-61
2021/10/20 05:10:51;;;;;;;19.97;12.20;;;;;;;2.71;59.03;100539.66;1722793;82;21010;-60
2021/10/20 05:13:20;;;;;;;22.00;14.10;;;;;;;2.71;59.03;100539.66;1721394;80;21381;-60
2021/10/20 05:15:47;;;;;;;21.50;12.65;;;;;;;2.67;59.01;100541.37;1730991;81;21594;-60
2021/10/20 05:18:13;;;;;;;22.40;13.83;;;;;;;2.70;59.20;100542.69;1727690;80;21449;-60
2021/10/20 05:20:40;;;;;;;22.60;12.57;;;;;;;2.75;59.15;100540.12;1726257;80;21499;-61
2021/10/20 05:23:10;;;;;;;20.65;13.00;;;;;;;2.76;59.17;100542.28;1725103;80;21427;-60
2021/10/20 05:25:41;;;;;;;19.65;12.58;;;;;;;2.80;59.13;100546.63;1727982;81;21775;-62
2021/10/20 05:28:06;;;;;;;24.85;12.90;;;;;;;2.83;59.14;100538.41;1721349;80;21610;-60
2021/10/20 05:30:34;;;;;;;21.48;13.32;;;;;;;2.87;59.36;100546.64;1709944;80;21559;-60
2021/10/20 05:33:00;;;;;;;18.25;12.07;;;;;;;2.88;59.51;100546.20;1722976;80;21504;-60
2021/10/20 05:35:27;;;;;;;18.90;11.88;;;;;;;2.90;59.49;100547.07;1722754;80;21625;-60
2021/10/20 05:37:56;;;;;;;20.37;11.53;;;;;;;2.99;59.48;100545.80;1723354;80;21006;-59
2021/10/20 05:40:24;;;;;;;22.67;12.63;;;;;;;3.05;59.42;100550.14;1722784;80;21093;-59
2021/10/20 05:42:51;;;;;;;18.87;11.68;;;;;;;3.14;59.54;100547.57;1725709;80;21006;-62
2021/10/20 05:45:17;;;;;;;16.80;11.53;;;;;;;3.26;59.45;100545.01;1726527;80;21077;-60
2021/10/20 05:47:44;;;;;;;18.32;11.00;;;;;;;3.46;59.05;100533.75;1725247;80;21488;-61
2021/10/20 05:50:11;;;;;;;15.85;11.57;;;;;;;3.61;58.58;100529.84;1732619;81;21873;-60
2021/10/20 05:52:38;;;;;;;21.30;11.45;;;;;;;3.67;58.42;100527.67;1724504;80;21514;-64
2021/10/20 05:55:06;;;;;;;16.87;11.08;;;;;;;3.76;58.40;100526.38;1722774;80;21566;-61
2021/10/20 05:57:37;;;;;;;14.85;10.48;;;;;;;3.87;58.10;100525.07;1724672;80;21042;-61
2021/10/20 06:00:07;;;;;;;21.23;12.00;;;;;;;3.89;58.17;100527.23;1726132;80;21952;-61
2021/10/20 06:02:36;;;;;;;15.32;10.82;;;;;;;3.86;58.26;100515.11;1727741;80;21809;-59
2021/10/20 06:05:04;;;;;;;16.93;10.85;;;;;;;3.97;57.94;100523.31;1727303;81;21516;-59
2021/10/20 06:07:45;;;;;;;21.05;10.88;;;;;;;4.00;58.21;100521.58;1720000;81;21744;-61
2021/10/20 06:10:14;;;;;;;17.45;10.28;;;;;;;4.03;58.26;100516.38;1716743;81;21551;-60
2021/10/20 06:12:41;;;;;;;19.37;11.73;;;;;;;4.12;58.33;100508.11;1717804;80;21118;-63
2021/10/20 06:15:24;;;;;;;15.75;11.05;;;;;;;4.18;58.25;100508.08;1732962;80;21433;-61
2021/10/20 06:17:51;;;;;;;17.20;10.40;;;;;;;4.24;58.23;100503.73;1730641;81;21581;-59
2021/10/20 06:20:18;;;;;;;15.20;9.70;;;;;;;4.34;58.22;100511.08;1728600;81;21521;-61
2021/10/20 06:22:45;;;;;;;17.15;11.05;;;;;;;4.45;58.15;100508.00;1726845;81;21528;-62
2021/10/20 06:25:12;;;;;;;16.93;11.12;;;;;;;4.50;58.13;100505.36;1728747;81;21438;-62
2021/10/20 06:27:40;;;;;;;16.50;10.85;;;;;;;4.59;58.41;100501.41;1730578;81;21865;-62
2021/10/20 06:30:08;;;;;;;20.62;11.45;;;;;;;4.67;58.13;100497.05;1725034;80;21757;-62
2021/10/20 06:32:35;;;;;;;20.15;12.18;;;;;;;4.73;58.08;100492.66;1737666;79;21650;-62
2021/10/20 06:35:03;;;;;;;24.52;14.55;;;;;;;4.82;58.24;100490.01;1726631;81;21195;-62
2021/10/20 06:37:30;;;;;;;19.02;12.18;;;;;;;4.95;58.08;100485.15;1729054;81;21454;-62
2021/10/20 06:40:00;;;;;;;16.57;11.43;;;;;;;5.11;57.85;100482.02;1735208;80;21830;-60
2021/10/20 06:42:26;;;;;;;18.07;10.55;;;;;;;5.27;57.52;100482.76;1729784;81;21449;-62
2021/10/20 06:44:56;;;;;;;16.07;11.28;;;;;;;5.51;57.36;100485.61;1728418;81;21545;-61
2021/10/20 06:47:25;;;;;;;18.10;10.70;;;;;;;5.70;57.14;100480.23;1728187;81;21553;-62
2021/10/20 06:49:52;;;;;;;17.50;10.95;;;;;;;5.88;57.01;100472.64;1730374;81;21561;-62
2021/10/20 06:52:19;;;;;;;13.60;10.30;;;;;;;6.03;56.81;100467.32;1728456;82;21801;-63
2021/10/20 06:54:46;;;;;;;19.23;10.27;;;;;;;6.19;57.10;100475.38;1730055;81;21051;-62
2021/10/20 06:57:13;;;;;;;15.90;10.20;;;;;;;6.38;57.03;100466.88;1728747;81;21516;-62
2021/10/20 06:59:41;;;;;;;14.15;10.58;;;;;;;6.61;56.91;100472.25;1733284;81;27140;-60
2021/10/20 07:02:08;;;;;;;16.35;10.40;;;;;;;6.85;56.65;100459.75;1728479;81;21686;-64
2021/10/20 07:04:35;;;;;;;12.68;9.98;;;;;;;6.99;56.76;100459.11;1726855;81;21770;-61
2021/10/20 07:07:02;;;;;;;13.95;9.95;;;;;;;7.08;56.84;100449.78;1728258;80;21545;-63
2021/10/20 07:09:30;;;;;;;16.80;9.90;;;;;;;7.20;56.75;100440.45;1730169;81;23908;-63
2021/10/20 07:11:59;;;;;;;15.03;10.03;;;;;;;7.29;56.93;100444.69;1732474;81;21658;-60
2021/10/20 07:14:30;;;;;;;17.17;9.95;;;;;;;7.43;57.02;100442.28;1727777;81;21556;-60
2021/10/20 07:16:58;;;;;;;15.48;9.93;;;;;;;7.53;57.18;100456.46;1728704;80;21808;-60
2021/10/20 07:19:26;;;;;;;15.10;10.55;;;;;;;7.63;57.44;100445.83;1728131;81;21584;-61
2021/10/20 07:21:53;;;;;;;16.82;10.30;;;;;;;7.69;57.07;100445.75;1728712;81;20995;-59
2021/10/20 07:24:20;;;;;;;14.45;10.20;;;;;;;7.75;57.25;100446.94;1730657;81;21576;-60
2021/10/20 07:26:46;;;;;;;14.83;10.35;;;;;;;7.83;57.37;100455.95;1729734;81;20976;-59
2021/10/20 07:29:13;;;;;;;18.30;10.53;;;;;;;7.85;57.39;100454.17;1733291;81;22092;-60
2021/10/20 07:31:40;;;;;;;16.23;10.73;;;;;;;7.96;57.46;100445.20;1731123;81;21574;-59
2021/10/20 07:34:07;;;;;;;14.73;10.40;;;;;;;8.11;57.34;100443.20;1728740;81;20972;-59
2021/10/20 07:36:37;;;;;;;13.53;9.50;;;;;;;8.22;57.19;100437.75;1729465;81;21032;-60
2021/10/20 07:39:04;;;;;;;17.10;10.23;;;;;;;8.33;57.23;100437.08;1728818;80;21563;-60
2021/10/20 07:41:32;;;;;;;14.05;9.78;;;;;;;8.40;57.20;100434.75;1728502;81;21788;-60
2021/10/20 07:43:59;;;;;;;16.42;9.80;;;;;;;8.52;57.22;100433.65;1730484;81;21549;-59
2021/10/20 07:46:26;;;;;;;13.08;10.30;;;;;;;8.67;57.04;100435.92;1728740;81;20993;-60
2021/10/20 07:48:53;;;;;;;13.95;10.35;;;;;;;8.88;56.72;100434.57;1735572;81;21596;-60
2021/10/20 07:51:19;;;;;;;16.05;12.35;;;;;;;9.04;56.85;100438.14;1741180;81;20977;-63
2021/10/20 07:53:46;;;;;;;16.50;10.43;;;;;;;9.21;56.73;100432.48;1728529;81;21792;-65
2021/10/20 07:56:14;;;;;;;13.40;10.80;;;;;;;9.33;56.86;100436.13;1733497;80;21670;-63
2021/10/20 07:58:43;;;;;;;18.67;10.80;;;;;;;9.48;57.01;100429.63;1728932;81;21586;-62
2021/10/20 08:01:11;;;;;;;14.90;12.00;;;;;;;9.57;56.88;100428.09;1732415;81;22444;-63
2021/10/20 08:03:38;;;;;;;17.42;12.05;;;;;;;9.68;56.94;100418.16;1727566;81;21965;-60
2021/10/20 08:06:04;;;;;;;18.98;12.58;;;;;;;9.69;57.46;100416.39;1734191;81;21501;-58
2021/10/20 08:08:33;;;;;;;16.73;12.30;;;;;;;9.77;57.44;100416.18;1730747;81;21512;-60
2021/10/20 08:11:00;;;;;;;16.60;12.47;;;;;;;9.86;57.40;100415.47;1728735;81;21118;-60
2021/10/20 08:13:28;;;;;;;15.90;11.88;;;;;;;10.05;57.49;100416.28;1728938;81;22096;-61
2021/10/20 08:15:54;;;;;;;13.88;11.78;;;;;;;10.13;57.54;100415.16;1731921;80;21414;-62
2021/10/20 08:18:22;;;;;;;19.02;12.82;;;;;;;10.21;57.79;100403.55;1732610;80;21920;-60
2021/10/20 08:20:49;;;;;;;15.72;12.50;;;;;;;10.20;58.13;100398.75;1728621;81;21552;-60
2021/10/20 08:23:16;;;;;;;19.30;12.63;;;;;;;10.26;57.96;100394.62;1732321;81;21154;-62
2021/10/20 08:25:45;;;;;;;17.80;12.60;;;;;;;10.28;58.15;100388.89;1735702;80;21573;-61
2021/10/20 08:28:12;;;;;;;20.17;13.88;;;;;;;10.46;58.22;100383.55;1742176;81;21599;-59
2021/10/20 08:30:39;;;;;;;20.55;13.93;;;;;;;10.45;58.37;100375.70;1742375;81;21604;-59
2021/10/20 08:33:06;;;;;;;20.60;13.80;;;;;;;10.45;58.82;100370.02;1742764;80;21612;-64
2021/10/20 08:35:33;;;;;;;18.65;14.28;;;;;;;10.57;58.65;100366.14;1736677;81;21579;-61
2021/10/20 08:38:03;;;;;;;17.15;14.18;;;;;;;10.64;58.66;100360.22;1740168;80;21503;-61
2021/10/20 08:40:37;;;;;;;24.02;14.05;;;;;;;10.67;58.84;100348.30;1738557;81;21035;-61
2021/10/20 08:43:05;;;;;;;19.95;14.70;;;;;;;10.66;59.07;100362.34;1740700;80;22108;-67
2021/10/20 08:45:32;;;;;;;20.52;14.55;;;;;;;10.79;59.14;100358.87;1736804;80;21526;-60
2021/10/20 08:48:00;;;;;;;25.70;14.80;;;;;;;10.94;58.92;100356.20;1737452;81;22004;-59
2021/10/20 08:50:30;;;;;;;20.43;15.23;;;;;;;11.11;58.34;100357.80;1728323;81;21592;-59
2021/10/20 08:52:57;;;;;;;22.95;15.53;;;;;;;11.22;58.03;100353.50;1731440;81;21563;-63
2021/10/20 08:55:24;;;;;;;28.15;17.77;;;;;;;11.23;58.48;100350.82;1727786;81;21426;-60
2021/10/20 08:57:52;;;;;;;21.95;16.90;;;;;;;11.30;58.63;100351.02;1728504;81;21569;-59
2021/10/20 09:00:20;;;;;;;19.77;15.72;;;;;;;11.49;58.11;100355.65;1727144;81;21709;-60
2021/10/20 09:02:47;;;;;;;23.60;16.00;;;;;;;11.53;57.66;100344.09;1727877;80;21462;-60
2021/10/20 09:05:18;;;;;;;22.98;15.90;;;;;;;11.47;58.10;100341.64;1729905;81;21489;-60
2021/10/20 09:07:49;;;;;;;20.62;16.77;;;;;;;11.63;57.86;100336.24;1727995;80;21493;-59
2021/10/20 09:10:16;;;;;;;24.50;16.60;;;;;;;11.75;57.42;100324.86;1729074;81;21532;-59
2021/10/20 09:12:43;;;;;;;21.67;15.73;;;;;;;11.84;57.54;100321.42;1728006;81;21542;-59
2021/10/20 09:15:19;;;;;;;26.82;16.70;;;;;;;12.09;56.80;100308.66;1727620;81;22346;-60
2021/10/20 09:17:52;;;;;;;22.75;16.97;;;;;;;12.20;56.90;100311.74;1723486;81;21505;-59
2021/10/20 09:20:27;;;;;;;28.25;16.20;;;;;;;12.42;56.61;100297.27;1721955;81;21422;-61
2021/10/20 09:23:11;;;;;;;21.85;15.63;;;;;;;12.60;56.32;100300.95;1723101;81;21094;-61
2021/10/20 09:25:58;;;;;;;21.60;15.30;;;;;;;12.76;56.10;100300.31;1722745;81;21597;-64
2021/10/20 09:28:31;;;;;;;17.70;14.53;;;;;;;12.90;55.94;100300.58;1721596;81;21627;-65
2021/10/20 09:31:01;;;;;;;24.80;17.30;;;;;;;13.28;54.77;100306.03;1725070;81;21569;-66
2021/10/20 09:33:26;;;;;;;20.65;15.38;;;;;;;13.54;53.64;100294.35;1725010;81;22145;-64
2021/10/20 09:35:54;;;;;;;20.53;15.13;;;;;;;13.75;53.54;100290.31;1696964;82;21623;-64
2021/10/20 09:38:20;;;;;;;18.60;15.75;;;;;;;13.92;53.42;100290.86;1705910;81;21037;-62
2021/10/20 09:40:48;;;;;;;22.20;15.85;;;;;;;14.11;53.44;100273.23;1698007;81;21571;-61
2021/10/20 09:43:22;;;;;;;21.80;16.10;;;;;;;14.25;52.64;100272.56;1724891;81;21506;-62
2021/10/20 09:46:01;;;;;;;19.55;14.63;;;;;;;14.53;51.46;100268.58;1676902;83;21643;-62
2021/10/20 09:48:31;;;;;;;16.97;14.03;;;;;;;14.37;52.60;100270.66;1676408;83;21600;-61
2021/10/20 09:51:08;;;;;;;18.87;14.03;;;;;;;14.55;51.30;100258.78;1672431;83;21550;-61
2021/10/20 09:53:42;;;;;;;19.27;14.43;;;;;;;14.59;51.58;100263.86;1677448;84;20997;-63
2021/10/20 09:56:32;;;;;;;18.35;14.05;;;;;;;14.51;51.85;100254.57;1673539;85;21533;-63
2021/10/20 09:58:59;;;;;;;20.35;15.23;;;;;;;14.69;51.52;100253.70;1675074;83;22049;-62
2021/10/20 10:01:30;;;;;;;22.60;14.93;;;;;;;14.77;50.91;100248.86;1674823;85;21045;-61
2021/10/20 10:04:02;;;;;;;20.57;14.25;;;;;;;14.87;50.72;100257.19;1675537;84;21651;-61
2021/10/20 10:06:26;;;;;;;19.92;14.40;;;;;;;14.86;50.08;100245.34;1677176;83;21783;-62
2021/10/20 10:08:54;;;;;;;22.77;14.15;;;;;;;14.88;49.59;100244.80;1674678;83;21646;-62
2021/10/20 10:11:23;;;;;;;17.57;14.75;;;;;;;14.65;50.39;100244.64;1671471;83;21496;-61
2021/10/20 10:13:52;;;;;;;17.52;13.95;;;;;;;14.71;50.31;100239.03;1672102;85;21444;-61
2021/10/20 10:16:27;;;;;;;21.20;15.35;;;;;;;14.74;50.38;100231.80;1675093;83;21565;-61
2021/10/20 10:18:56;;;;;;;20.55;14.43;;;;;;;15.02;49.37;100225.09;1681650;83;21572;-60
2021/10/20 10:21:37;;;;;;;19.90;14.73;;;;;;;14.94;49.74;100222.00;1677238;82;21657;-61
2021/10/20 10:24:11;;;;;;;18.17;13.10;;;;;;;14.99;49.54;100205.38;1678740;83;21912;-62
2021/10/20 10:27:02;;;;;;;18.05;13.55;;;;;;;15.08;49.78;100212.84;1676399;85;21617;-62
2021/10/20 10:29:31;;;;;;;17.82;12.88;;;;;;;15.17;49.45;100210.20;1644101;84;21605;-60
2021/10/20 10:32:04;;;;;;;20.60;14.18;;;;;;;15.30;48.44;100204.63;1644248;84;21495;-59
2021/10/20 10:34:35;;;;;;;19.48;14.60;;;;;;;15.09;48.63;100205.78;1648012;83;21578;-61
2021/10/20 10:37:28;;;;;;;20.32;13.75;;;;;;;14.87;49.15;100200.74;1668156;83;21837;-60
2021/10/20 10:39:55;;;;;;;26.82;14.40;;;;;;;14.59;49.96;100200.34;1680641;83;21616;-61
2021/10/20 10:42:35;;;;;;;22.55;16.67;;;;;;;14.66;49.62;100202.70;1649042;85;21569;-61
2021/10/20 10:45:12;;;;;;;22.48;15.58;;;;;;;14.40;50.71;100179.22;1643162;85;21685;-61
2021/10/20 10:48:00;;;;;;;22.55;15.70;;;;;;;14.33;51.09;100178.28;1631838;86;21076;-59
2021/10/20 10:50:49;;;;;;;19.00;15.23;;;;;;;14.38;50.84;100178.45;1634079;86;21801;-60
2021/10/20 10:53:37;;;;;;;27.58;17.98;;;;;;;14.57;50.66;100163.00;1635960;85;21527;-59
2021/10/20 10:56:17;;;;;;;31.55;21.30;;;;;;;14.58;50.75;100164.73;1660004;84;21610;-58
2021/10/20 10:59:08;;;;;;;23.20;16.40;;;;;;;14.70;50.66;100163.23;1669126;84;21540;-58
2021/10/20 11:01:48;;;;;;;22.32;15.63;;;;;;;14.90;50.54;100163.05;1651211;84;21524;-59
2021/10/20 11:04:28;;;;;;;20.65;15.80;;;;;;;15.16;49.74;100147.55;1658386;84;21584;-59
2021/10/20 11:06:56;;;;;;;24.82;15.43;;;;;;;15.35;49.44;100147.41;1645261;84;21533;-60
2021/10/20 11:09:32;;;;;;;22.45;15.10;;;;;;;15.50;49.15;100142.63;1668287;83;20977;-57
2021/10/20 11:12:01;;;;;;;24.87;15.98;;;;;;;15.64;49.05;100135.69;1689295;82;21552;-60
2021/10/20 11:14:29;;;;;;;19.17;14.28;;;;;;;15.69;48.63;100134.94;1692729;82;21626;-59
2021/10/20 11:17:10;;;;;;;20.05;14.43;;;;;;;15.57;48.87;100130.71;1690173;82;21520;-59
2021/10/20 11:19:39;;;;;;;18.15;14.78;;;;;;;15.55;48.91;100125.97;1691105;82;21542;-58
2021/10/20 11:22:06;;;;;;;21.60;14.23;;;;;;;15.56;49.08;100128.17;1698189;82;21546;-59
2021/10/20 11:24:35;;;;;;;17.90;12.55;;;;;;;15.64;48.58;100132.56;1690973;83;21549;-59
2021/10/20 11:27:05;;;;;;;;;;;;;;;15.78;48.17;100132.28;1693513;83;21648;-60